Time;durP1;ratioP1;P1;durP2;ratioP2;P2;SDS_P1;SDS_P2;PMS_P1;PMS_P2;Temp;Humidity;BMP_temperature;BMP_pressure;BME280_temperature;BME280_humidity;BME280_pressure;Samples;Min_cycle;Max_cycle;Signal;HPM_P1;HPM_P2
2022/08/09 00:00:10;;;;;;;4.95;2.42;;;19.20;80.60;;;;;;4995125;28;20113;-78
2022/08/09 00:02:36;;;;;;;2.53;2.13;;;19.20;80.50;;;;;;4999910;28;20129;-79
2022/08/09 00:05:03;;;;;;;3.85;1.77;;;19.20;80.50;;;;;;4997053;28;20065;-79
2022/08/09 00:07:29;;;;;;;4.15;2.50;;;19.20;80.70;;;;;;5006141;28;20031;-79
2022/08/09 00:09:54;;;;;;;4.10;2.30;;;19.20;80.90;;;;;;5001703;28;20446;-79
2022/08/09 00:12:20;;;;;;;3.50;2.22;;;19.20;81.10;;;;;;4994341;28;20113;-78
2022/08/09 00:14:46;;;;;;;2.17;1.98;;;19.20;81.10;;;;;;4997196;28;20670;-77
2022/08/09 00:17:11;;;;;;;3.72;1.98;;;19.10;81.00;;;;;;4997540;28;20034;-78
2022/08/09 00:19:37;;;;;;;2.53;1.85;;;19.10;81.20;;;;;;5011879;28;20491;-79
2022/08/09 00:22:03;;;;;;;2.80;2.00;;;19.10;81.30;;;;;;5014403;28;20038;-77
2022/08/09 00:24:30;;;;;;;4.63;2.10;;;19.00;81.30;;;;;;5001278;28;20042;-78
2022/08/09 00:26:56;;;;;;;4.70;2.05;;;19.00;81.60;;;;;;4997930;28;20112;-79
2022/08/09 00:29:22;;;;;;;4.63;2.10;;;19.00;82.00;;;;;;4998770;28;20555;-79
2022/08/09 00:31:48;;;;;;;2.80;2.28;;;19.00;82.20;;;;;;5000368;28;20054;-79
2022/08/09 00:34:13;;;;;;;5.57;2.30;;;18.90;82.30;;;;;;4996692;28;20101;-79
2022/08/09 00:36:40;;;;;;;3.28;2.20;;;18.90;82.60;;;;;;4997727;28;20090;-79
2022/08/09 00:39:06;;;;;;;5.18;2.10;;;18.80;82.30;;;;;;4992663;28;20507;-79
2022/08/09 00:41:32;;;;;;;3.10;2.10;;;18.80;82.60;;;;;;4994841;28;20081;-80
2022/08/09 00:43:58;;;;;;;3.25;2.05;;;18.80;82.80;;;;;;4991919;28;20085;-78
2022/08/09 00:46:23;;;;;;;3.50;2.13;;;18.80;83.00;;;;;;5015361;28;20113;-78
2022/08/09 00:48:50;;;;;;;4.70;2.45;;;18.70;83.00;;;;;;4998899;28;20435;-79
2022/08/09 00:51:16;;;;;;;5.03;1.98;;;18.70;83.30;;;;;;4994940;28;20026;-78
2022/08/09 00:53:44;;;;;;;4.18;2.00;;;18.60;83.60;;;;;;5012130;28;20077;-78
2022/08/09 00:56:09;;;;;;;2.65;1.80;;;18.60;83.60;;;;;;4991339;28;20053;-78
2022/08/09 00:58:35;;;;;;;3.38;2.10;;;18.60;83.50;;;;;;4999414;28;20022;-79
2022/08/09 01:01:07;;;;;;;3.25;2.15;;;18.60;83.70;;;;;;5001780;28;20037;-78
2022/08/09 01:03:53;;;;;;;3.00;2.40;;;18.60;84.00;;;;;;4999988;28;20041;-79
2022/08/09 01:06:32;;;;;;;3.67;2.42;;;18.50;84.00;;;;;;5001861;28;20054;-78
2022/08/09 01:09:19;;;;;;;2.90;2.20;;;18.50;84.30;;;;;;5003926;28;20030;-78
2022/08/09 01:12:17;;;;;;;4.53;2.22;;;18.50;84.70;;;;;;5003634;28;20033;-79
2022/08/09 01:15:03;;;;;;;4.90;2.53;;;18.50;85.10;;;;;;4978235;28;20035;-78
2022/08/09 01:17:44;;;;;;;3.45;1.80;;;18.40;85.50;;;;;;4998839;28;20561;-78
2022/08/09 01:20:16;;;;;;;4.15;2.30;;;18.40;86.10;;;;;;4985075;28;20037;-79
2022/08/09 01:22:45;;;;;;;4.50;2.30;;;18.40;86.00;;;;;;4994923;28;20023;-79
2022/08/09 01:25:32;;;;;;;2.38;2.15;;;18.40;86.20;;;;;;5008376;28;20081;-79
2022/08/09 01:28:00;;;;;;;3.35;2.42;;;18.40;86.50;;;;;;5001196;28;20121;-78
2022/08/09 01:30:27;;;;;;;3.03;2.17;;;18.30;86.40;;;;;;4988423;28;20038;-77
2022/08/09 01:32:55;;;;;;;2.85;2.20;;;18.30;86.20;;;;;;4983380;28;20037;-78
2022/08/09 01:35:29;;;;;;;2.92;2.30;;;18.30;86.40;;;;;;4992953;28;20109;-78
2022/08/09 01:37:59;;;;;;;5.13;2.67;;;18.30;86.50;;;;;;4998832;28;20026;-77
2022/08/09 01:40:27;;;;;;;4.35;2.70;;;18.20;86.70;;;;;;4992455;28;20027;-79
2022/08/09 01:42:53;;;;;;;4.60;2.83;;;18.20;87.20;;;;;;5002634;28;20026;-79
2022/08/09 01:45:21;;;;;;;7.28;2.33;;;18.20;87.30;;;;;;4992467;28;20027;-77
2022/08/09 01:47:47;;;;;;;5.70;2.85;;;18.10;87.40;;;;;;4987461;28;20030;-77
2022/08/09 01:50:14;;;;;;;4.82;2.70;;;18.10;87.30;;;;;;4993466;28;20025;-76
2022/08/09 01:52:42;;;;;;;3.25;2.63;;;18.10;87.70;;;;;;5005514;28;20050;-76
2022/08/09 01:55:09;;;;;;;5.97;2.95;;;18.00;87.90;;;;;;4989835;28;20042;-78
2022/08/09 01:57:44;;;;;;;4.03;2.92;;;17.90;88.60;;;;;;5010214;28;20026;-78
2022/08/09 02:00:12;;;;;;;11.68;3.45;;;17.90;88.80;;;;;;4990506;28;20068;-76
2022/08/09 02:02:43;;;;;;;5.38;2.85;;;17.90;89.00;;;;;;4999391;28;20023;-77
2022/08/09 02:05:11;;;;;;;4.72;3.00;;;17.80;89.20;;;;;;4990887;28;20045;-77
2022/08/09 02:07:44;;;;;;;6.22;2.80;;;17.80;89.40;;;;;;4991799;28;20038;-79
2022/08/09 02:10:23;;;;;;;3.08;2.63;;;17.80;90.00;;;;;;5000346;28;20503;-79
2022/08/09 02:12:54;;;;;;;5.38;2.90;;;17.80;90.10;;;;;;4996342;28;20040;-80
2022/08/09 02:15:23;;;;;;;4.70;2.50;;;17.70;90.10;;;;;;4995079;28;20428;-79
2022/08/09 02:17:51;;;;;;;3.65;3.25;;;17.70;90.20;;;;;;4992906;28;20491;-78
2022/08/09 02:20:17;;;;;;;3.28;2.75;;;17.70;90.20;;;;;;4992959;28;20050;-80
2022/08/09 02:23:12;;;;;;;4.88;2.65;;;17.70;90.30;;;;;;4997780;28;20033;-77
2022/08/09 02:25:40;;;;;;;5.28;4.03;;;17.60;90.50;;;;;;4992114;28;20101;-77
2022/08/09 02:28:08;;;;;;;6.18;3.42;;;17.60;90.50;;;;;;4995897;28;20030;-77
2022/08/09 02:30:46;;;;;;;4.38;3.22;;;17.60;90.80;;;;;;4994149;28;20041;-77
2022/08/09 02:33:17;;;;;;;6.40;3.45;;;17.50;90.90;;;;;;5009301;28;20435;-79
2022/08/09 02:35:46;;;;;;;5.50;3.67;;;17.50;91.10;;;;;;5006521;28;20080;-77
2022/08/09 02:38:14;;;;;;;4.43;3.22;;;17.50;91.50;;;;;;4989694;28;20026;-77
2022/08/09 02:40:42;;;;;;;5.60;3.72;;;17.50;91.40;;;;;;4997194;28;20027;-78
2022/08/09 02:43:10;;;;;;;6.00;3.65;;;17.50;91.50;;;;;;4999938;28;20388;-78
2022/08/09 02:45:41;;;;;;;5.85;3.15;;;17.40;91.60;;;;;;4999935;28;20033;-78
2022/08/09 02:48:14;;;;;;;4.93;2.67;;;17.40;91.70;;;;;;5007715;28;20034;-79
2022/08/09 02:50:47;;;;;;;6.32;3.75;;;17.40;91.80;;;;;;4993045;28;20408;-78
2022/08/09 02:53:26;;;;;;;5.60;2.83;;;17.30;91.80;;;;;;4992768;28;20121;-79
2022/08/09 02:55:57;;;;;;;4.32;2.88;;;17.30;92.00;;;;;;5003338;28;20057;-78
2022/08/09 02:58:28;;;;;;;4.93;3.40;;;17.30;92.20;;;;;;4989709;28;20033;-78
2022/08/09 03:00:54;;;;;;;5.57;3.30;;;17.20;92.30;;;;;;5007674;28;20034;-78
2022/08/09 03:03:21;;;;;;;4.07;2.67;;;17.20;92.50;;;;;;4994306;28;20027;-77
2022/08/09 03:05:49;;;;;;;5.72;3.20;;;17.20;92.60;;;;;;4994482;28;20573;-78
2022/08/09 03:08:16;;;;;;;7.22;2.90;;;17.20;92.80;;;;;;4994620;28;20030;-79
2022/08/09 03:10:44;;;;;;;7.15;2.95;;;17.10;92.90;;;;;;5008090;28;20085;-79
2022/08/09 03:13:12;;;;;;;3.15;2.85;;;17.10;93.20;;;;;;4998140;28;20026;-79
2022/08/09 03:15:39;;;;;;;3.38;2.80;;;17.10;93.30;;;;;;4995101;28;20042;-78
2022/08/09 03:18:06;;;;;;;3.88;2.70;;;17.10;93.30;;;;;;4998672;28;20030;-77
2022/08/09 03:20:31;;;;;;;4.03;2.60;;;17.10;93.40;;;;;;5008251;28;20102;-77
2022/08/09 03:22:58;;;;;;;4.35;2.58;;;17.10;93.50;;;;;;4993709;28;20070;-77
2022/08/09 03:25:27;;;;;;;3.60;2.58;;;17.00;93.60;;;;;;4990422;28;20105;-77
2022/08/09 03:27:54;;;;;;;6.20;2.78;;;17.00;93.60;;;;;;5000739;28;20061;-78
2022/08/09 03:30:19;;;;;;;5.35;2.65;;;17.00;93.60;;;;;;4992351;28;20408;-79
2022/08/09 03:32:46;;;;;;;7.78;2.88;;;17.00;93.80;;;;;;5014304;28;20037;-78
2022/08/09 03:35:12;;;;;;;5.60;3.38;;;17.00;94.00;;;;;;4993123;28;20034;-77
2022/08/09 03:37:39;;;;;;;3.85;3.17;;;16.90;94.30;;;;;;4991989;28;20022;-76
2022/08/09 03:40:06;;;;;;;4.18;3.03;;;16.90;94.60;;;;;;4993346;28;20175;-78
2022/08/09 03:42:32;;;;;;;4.82;3.03;;;16.90;94.80;;;;;;4994733;28;20031;-78
2022/08/09 03:44:58;;;;;;;3.97;3.17;;;16.80;95.10;;;;;;4994765;28;20037;-78
2022/08/09 03:47:24;;;;;;;5.32;2.70;;;16.80;95.30;;;;;;4997056;28;20022;-78
2022/08/09 03:49:51;;;;;;;5.28;2.97;;;16.70;95.40;;;;;;4989581;28;20487;-78
2022/08/09 03:52:18;;;;;;;4.32;2.80;;;16.70;95.60;;;;;;4996526;28;20030;-78
2022/08/09 03:54:47;;;;;;;6.03;2.95;;;16.70;95.80;;;;;;4997022;28;20030;-77
2022/08/09 03:57:14;;;;;;;5.28;3.20;;;16.70;96.10;;;;;;4993731;28;20034;-78
2022/08/09 03:59:41;;;;;;;4.65;3.13;;;16.70;96.40;;;;;;5001182;28;20021;-76
2022/08/09 04:02:07;;;;;;;6.30;3.20;;;16.60;96.60;;;;;;5003107;28;20113;-76
2022/08/09 04:04:35;;;;;;;4.10;2.95;;;16.60;96.60;;;;;;5001129;28;20105;-77
2022/08/09 04:07:02;;;;;;;4.07;2.90;;;16.60;96.80;;;;;;4985574;28;20077;-76
2022/08/09 04:09:27;;;;;;;4.53;2.97;;;16.50;96.80;;;;;;4992754;28;20696;-78
2022/08/09 04:11:53;;;;;;;4.65;2.72;;;16.50;96.90;;;;;;4997200;28;20057;-77
2022/08/09 04:14:20;;;;;;;5.00;2.85;;;16.50;96.90;;;;;;5001229;28;20034;-77
2022/08/09 04:16:46;;;;;;;8.15;3.35;;;16.40;96.90;;;;;;5005841;28;20105;-78
2022/08/09 04:19:12;;;;;;;7.20;3.28;;;16.40;97.00;;;;;;4991338;28;20125;-76
2022/08/09 04:21:38;;;;;;;7.03;3.65;;;16.40;97.50;;;;;;4996961;28;20506;-76
2022/08/09 04:24:05;;;;;;;6.47;3.40;;;16.40;97.30;;;;;;4992153;28;20029;-76
2022/08/09 04:26:31;;;;;;;3.58;3.15;;;16.40;97.60;;;;;;5003560;28;20253;-76
2022/08/09 04:28:57;;;;;;;6.45;3.53;;;16.40;97.70;;;;;;4997171;28;20026;-76
2022/08/09 04:31:22;;;;;;;6.43;3.22;;;16.40;98.00;;;;;;5001426;28;20034;-76
2022/08/09 04:33:48;;;;;;;4.68;3.33;;;16.40;98.00;;;;;;4997464;28;20085;-76
2022/08/09 04:36:14;;;;;;;9.70;3.22;;;16.40;98.30;;;;;;4996870;28;20557;-76
2022/08/09 04:38:39;;;;;;;5.18;3.10;;;16.40;98.10;;;;;;4992363;28;20053;-76
2022/08/09 04:41:05;;;;;;;6.70;3.22;;;16.40;98.20;;;;;;4996692;28;20113;-76
2022/08/09 04:43:30;;;;;;;3.53;3.13;;;16.40;98.10;;;;;;4995184;28;20033;-76
2022/08/09 04:45:56;;;;;;;8.40;3.97;;;16.40;98.30;;;;;;4993878;28;20038;-76
2022/08/09 04:48:22;;;;;;;6.28;3.83;;;16.40;98.50;;;;;;4996301;28;20622;-75
2022/08/09 04:50:47;;;;;;;5.15;3.50;;;16.40;98.80;;;;;;4997284;28;20121;-76
2022/08/09 04:53:13;;;;;;;4.68;3.45;;;16.40;98.90;;;;;;4995076;28;20030;-76
2022/08/09 04:55:39;;;;;;;5.43;3.80;;;16.40;99.10;;;;;;4993271;28;20030;-76
2022/08/09 04:58:05;;;;;;;4.45;3.65;;;16.40;99.20;;;;;;5015599;28;20084;-76
2022/08/09 05:00:33;;;;;;;10.30;4.57;;;16.40;99.30;;;;;;4999703;28;20026;-76
2022/08/09 05:03:00;;;;;;;9.80;4.75;;;16.50;99.40;;;;;;4995250;28;20076;-76
2022/08/09 05:05:26;;;;;;;8.63;3.95;;;16.50;99.50;;;;;;4992032;28;20022;-76
2022/08/09 05:07:52;;;;;;;6.97;4.10;;;16.50;99.70;;;;;;4994166;28;20520;-75
2022/08/09 05:10:18;;;;;;;5.75;4.28;;;16.60;99.70;;;;;;4994175;28;20030;-75
2022/08/09 05:12:43;;;;;;;6.90;4.40;;;16.70;99.60;;;;;;4997009;28;20033;-75
2022/08/09 05:15:09;;;;;;;8.63;4.28;;;16.80;99.40;;;;;;4999796;28;20030;-75
2022/08/09 05:17:35;;;;;;;8.07;5.10;;;16.90;99.10;;;;;;4987752;28;20085;-74
2022/08/09 05:20:01;;;;;;;7.90;4.82;;;17.10;99.00;;;;;;4997494;28;20026;-76
2022/08/09 05:22:27;;;;;;;6.35;4.15;;;17.20;98.60;;;;;;4990383;28;20384;-75
2022/08/09 05:24:52;;;;;;;4.00;3.60;;;17.30;98.10;;;;;;4997439;28;20025;-76
2022/08/09 05:27:18;;;;;;;5.57;3.85;;;17.50;97.80;;;;;;4992643;28;20033;-76
2022/08/09 05:29:44;;;;;;;10.00;4.85;;;17.60;97.40;;;;;;4989727;28;20065;-75
2022/08/09 05:32:09;;;;;;;6.90;3.78;;;17.70;96.70;;;;;;4999995;28;20062;-74
2022/08/09 05:34:35;;;;;;;7.93;4.10;;;17.80;96.40;;;;;;4986965;28;20057;-66
2022/08/09 05:37:05;;;;;;;6.85;4.22;;;17.90;95.90;;;;;;4989561;28;20030;-68
2022/08/09 05:39:32;;;;;;;5.95;3.60;;;18.00;95.80;;;;;;5009357;28;20022;-67
2022/08/09 05:41:58;;;;;;;15.30;5.20;;;18.10;95.60;;;;;;4992732;28;20556;-67
2022/08/09 05:44:26;;;;;;;9.27;4.35;;;18.30;95.50;;;;;;4991663;28;20033;-67
2022/08/09 05:46:52;;;;;;;9.27;4.43;;;18.50;95.10;;;;;;4994185;28;20104;-67
2022/08/09 05:49:17;;;;;;;9.43;4.28;;;18.70;94.40;;;;;;4993809;28;20050;-68
2022/08/09 05:51:43;;;;;;;6.60;4.10;;;18.90;94.00;;;;;;4989188;28;20501;-66
2022/08/09 05:54:09;;;;;;;4.70;3.95;;;19.10;93.40;;;;;;4993179;28;20029;-67
2022/08/09 05:56:34;;;;;;;6.75;3.90;;;19.30;92.90;;;;;;4991942;28;20026;-67
2022/08/09 05:59:00;;;;;;;6.32;4.20;;;19.50;92.60;;;;;;4989941;28;21522;-67
2022/08/09 06:01:27;;;;;;;6.60;4.15;;;19.60;92.30;;;;;;5011191;28;20515;-68
2022/08/09 06:03:53;;;;;;;6.80;4.13;;;19.70;92.20;;;;;;4987863;28;20045;-67
2022/08/09 06:06:19;;;;;;;5.45;4.38;;;19.70;92.10;;;;;;4991274;28;20031;-67
2022/08/09 06:08:45;;;;;;;12.07;5.60;;;19.80;91.70;;;;;;4990690;28;20380;-68
2022/08/09 06:11:10;;;;;;;11.20;6.43;;;19.80;91.50;;;;;;4997467;28;20100;-69
2022/08/09 06:13:36;;;;;;;6.97;5.03;;;19.90;91.30;;;;;;4994761;28;20083;-69
2022/08/09 06:16:03;;;;;;;9.90;5.72;;;19.90;91.30;;;;;;5000624;28;20037;-69
2022/08/09 06:18:29;;;;;;;10.95;5.30;;;19.90;90.90;;;;;;4992926;28;20014;-69
2022/08/09 06:20:58;;;;;;;8.00;5.43;;;19.90;90.90;;;;;;4991093;28;20041;-69
2022/08/09 06:23:26;;;;;;;9.65;5.07;;;19.90;90.90;;;;;;4989213;28;20084;-69
2022/08/09 06:25:51;;;;;;;7.38;4.82;;;19.90;90.90;;;;;;4984002;28;20530;-69
2022/08/09 06:28:17;;;;;;;19.05;5.82;;;19.90;90.80;;;;;;4994122;28;20013;-69
2022/08/09 06:30:43;;;;;;;8.43;5.28;;;19.90;90.80;;;;;;4993467;28;20093;-67
2022/08/09 06:33:08;;;;;;;9.25;4.75;;;19.90;90.70;;;;;;4991963;28;20496;-67
2022/08/09 06:35:34;;;;;;;7.47;5.07;;;19.90;90.80;;;;;;4992731;28;20037;-67
2022/08/09 06:38:00;;;;;;;6.78;4.68;;;19.80;90.70;;;;;;4994588;28;20518;-67
2022/08/09 06:40:26;;;;;;;6.85;4.80;;;19.90;90.80;;;;;;4991252;28;20491;-67
2022/08/09 06:42:52;;;;;;;7.00;4.55;;;19.90;90.70;;;;;;4987195;28;20040;-67
2022/08/09 06:45:18;;;;;;;6.70;4.70;;;19.90;90.50;;;;;;4990134;28;20034;-67
2022/08/09 06:47:44;;;;;;;9.20;4.80;;;19.90;90.40;;;;;;4990035;28;20025;-67
2022/08/09 06:50:10;;;;;;;9.02;4.93;;;19.90;90.30;;;;;;4991990;28;20077;-67
2022/08/09 06:52:38;;;;;;;9.43;4.03;;;19.90;90.30;;;;;;4987773;28;20106;-68
2022/08/09 06:55:05;;;;;;;6.50;4.53;;;19.90;90.30;;;;;;4994569;28;20040;-67
2022/08/09 06:57:31;;;;;;;5.60;3.97;;;20.00;90.30;;;;;;4988302;28;20053;-72
2022/08/09 06:59:56;;;;;;;5.25;3.95;;;20.00;90.00;;;;;;4990642;28;20027;-73
2022/08/09 07:02:23;;;;;;;7.43;4.07;;;20.10;90.00;;;;;;4981311;28;20026;-73
2022/08/09 07:04:49;;;;;;;7.05;4.20;;;20.10;89.50;;;;;;5000677;28;20030;-72
2022/08/09 07:07:14;;;;;;;5.90;3.95;;;20.20;89.60;;;;;;4994554;28;20505;-72
2022/08/09 07:09:41;;;;;;;9.88;3.97;;;20.30;89.60;;;;;;4993502;28;20025;-72
2022/08/09 07:12:06;;;;;;;6.53;3.90;;;20.30;89.30;;;;;;4990363;28;20026;-73
2022/08/09 07:14:32;;;;;;;5.70;3.85;;;20.30;89.30;;;;;;5004497;28;20029;-72
2022/08/09 07:16:58;;;;;;;5.50;3.60;;;20.40;89.30;;;;;;4994294;28;20034;-72
2022/08/09 07:19:23;;;;;;;10.27;3.85;;;20.40;89.30;;;;;;5003295;28;20026;-73
2022/08/09 07:21:50;;;;;;;6.78;3.85;;;20.40;89.50;;;;;;4999340;28;20034;-73
2022/08/09 07:24:16;;;;;;;8.75;3.72;;;20.50;90.00;;;;;;4993025;28;20514;-73
2022/08/09 07:26:42;;;;;;;5.18;3.60;;;20.50;90.20;;;;;;4988023;28;20109;-72
2022/08/09 07:29:08;;;;;;;6.60;3.15;;;20.50;90.40;;;;;;4998882;28;20034;-73
2022/08/09 07:31:34;;;;;;;6.75;4.28;;;20.50;90.60;;;;;;4995423;28;20018;-73
2022/08/09 07:33:59;;;;;;;9.98;4.40;;;20.50;90.70;;;;;;4996515;28;20168;-73
2022/08/09 07:36:26;;;;;;;8.43;3.67;;;20.50;90.70;;;;;;4993465;28;20030;-73
2022/08/09 07:38:53;;;;;;;7.45;4.13;;;20.50;90.80;;;;;;4991956;28;20479;-73
2022/08/09 07:41:19;;;;;;;6.57;4.68;;;20.50;90.80;;;;;;4991041;28;20015;-73
2022/08/09 07:43:45;;;;;;;5.25;3.80;;;20.50;90.70;;;;;;4997533;28;20081;-73
2022/08/09 07:46:10;;;;;;;6.40;4.13;;;20.70;90.80;;;;;;4993594;28;20093;-73
2022/08/09 07:48:36;;;;;;;6.03;3.80;;;20.70;90.70;;;;;;4997740;28;20026;-73
2022/08/09 07:51:02;;;;;;;6.22;3.97;;;20.70;90.60;;;;;;4995980;28;20056;-73
2022/08/09 07:53:28;;;;;;;9.43;4.32;;;20.80;90.70;;;;;;4994142;28;20088;-72
2022/08/09 07:55:53;;;;;;;6.35;4.50;;;20.90;90.80;;;;;;4996745;28;20057;-74
2022/08/09 07:58:19;;;;;;;8.38;4.22;;;20.90;90.80;;;;;;4995066;28;20394;-74
2022/08/09 08:00:45;;;;;;;7.18;4.03;;;20.90;90.80;;;;;;4996128;28;20061;-73
2022/08/09 08:03:10;;;;;;;7.40;4.07;;;21.10;90.80;;;;;;4996450;28;20037;-73
2022/08/09 08:05:36;;;;;;;11.10;4.18;;;21.10;90.80;;;;;;4996206;28;20026;-73
2022/08/09 08:08:02;;;;;;;5.75;4.25;;;21.20;90.80;;;;;;4996409;28;20038;-73
2022/08/09 08:10:29;;;;;;;6.65;3.65;;;21.30;90.60;;;;;;4987594;28;20509;-74
2022/08/09 08:12:55;;;;;;;6.10;4.10;;;21.40;90.60;;;;;;5002914;28;20053;-75
2022/08/09 08:15:20;;;;;;;11.68;3.88;;;21.50;90.50;;;;;;4996320;28;20026;-76
2022/08/09 08:17:50;;;;;;;6.00;3.00;;;21.60;90.40;;;;;;5007619;28;20505;-74
2022/08/09 08:20:20;;;;;;;6.00;3.30;;;21.70;90.30;;;;;;4992408;28;20480;-73
2022/08/09 08:22:46;;;;;;;5.97;3.30;;;21.80;90.10;;;;;;4995320;28;20555;-73
2022/08/09 08:25:12;;;;;;;4.35;3.35;;;21.90;90.10;;;;;;4992431;28;20034;-73
2022/08/09 08:27:38;;;;;;;5.68;2.90;;;22.00;89.60;;;;;;4993035;28;20038;-74
2022/08/09 08:30:04;;;;;;;6.88;2.90;;;22.20;89.30;;;;;;4993807;28;20081;-74
2022/08/09 08:32:30;;;;;;;4.68;3.05;;;22.20;88.80;;;;;;4995588;28;20431;-74
2022/08/09 08:34:57;;;;;;;7.43;2.90;;;22.30;88.50;;;;;;4994588;28;20038;-74
2022/08/09 08:37:23;;;;;;;7.38;2.75;;;22.50;87.80;;;;;;4991520;28;20046;-74
2022/08/09 08:39:49;;;;;;;5.07;2.33;;;22.60;86.20;;;;;;4990218;28;20053;-73
2022/08/09 08:42:14;;;;;;;4.65;2.75;;;22.70;85.80;;;;;;4996613;28;20026;-74
2022/08/09 08:44:42;;;;;;;5.18;3.00;;;23.00;84.10;;;;;;5002779;28;20092;-73
2022/08/09 08:47:09;;;;;;;4.50;2.42;;;23.10;84.20;;;;;;5002980;28;20034;-72
2022/08/09 08:49:39;;;;;;;6.65;2.70;;;23.30;83.20;;;;;;4993102;28;20082;-72
2022/08/09 08:52:06;;;;;;;4.93;2.88;;;23.30;82.90;;;;;;4990230;28;20022;-73
2022/08/09 08:54:33;;;;;;;4.65;2.60;;;23.40;82.40;;;;;;4994283;28;20037;-73
2022/08/09 08:56:59;;;;;;;4.95;2.58;;;23.50;81.30;;;;;;4998892;28;20030;-73
2022/08/09 08:59:25;;;;;;;3.95;2.45;;;23.60;80.20;;;;;;4993917;28;20533;-73
2022/08/09 09:01:51;;;;;;;6.68;2.22;;;23.60;80.90;;;;;;4995364;28;20376;-72
2022/08/09 09:04:18;;;;;;;4.80;2.55;;;23.70;81.20;;;;;;4991837;28;20030;-72
2022/08/09 09:06:47;;;;;;;5.85;2.33;;;23.80;80.90;;;;;;4991871;28;20023;-72
2022/08/09 09:09:15;;;;;;;3.08;2.10;;;23.80;79.30;;;;;;4997228;28;20030;-72
2022/08/09 09:11:42;;;;;;;5.00;2.38;;;23.90;77.90;;;;;;4990430;28;20034;-72
2022/08/09 09:14:16;;;;;;;5.15;1.92;;;23.90;77.30;;;;;;4996165;28;20026;-72
2022/08/09 09:16:42;;;;;;;3.55;1.90;;;23.90;76.80;;;;;;4989632;28;20023;-72
2022/08/09 09:19:10;;;;;;;3.58;1.90;;;24.00;77.80;;;;;;4991994;28;20034;-73
2022/08/09 09:21:54;;;;;;;3.53;2.05;;;24.10;78.30;;;;;;5008521;28;20031;-72
2022/08/09 09:24:27;;;;;;;3.10;2.00;;;24.10;78.30;;;;;;4987500;28;20038;-73
2022/08/09 09:26:55;;;;;;;5.00;1.80;;;24.10;75.60;;;;;;4993996;28;20065;-72
2022/08/09 09:29:32;;;;;;;3.08;2.00;;;24.30;74.60;;;;;;4997946;28;20030;-72
2022/08/09 09:31:58;;;;;;;4.25;1.80;;;24.50;69.80;;;;;;4989239;28;20057;-72
2022/08/09 09:34:24;;;;;;;5.68;2.10;;;24.60;68.70;;;;;;4993776;28;20038;-72
2022/08/09 09:36:50;;;;;;;3.60;1.75;;;24.60;68.40;;;;;;4976950;28;20026;-72
2022/08/09 09:39:17;;;;;;;2.47;1.50;;;24.70;66.50;;;;;;4989494;28;20037;-72
2022/08/09 09:41:43;;;;;;;2.90;1.77;;;24.80;65.10;;;;;;4997651;28;20411;-72
2022/08/09 09:44:09;;;;;;;6.65;1.63;;;24.90;64.80;;;;;;4994610;28;20045;-72
2022/08/09 09:46:37;;;;;;;3.65;1.58;;;24.90;64.70;;;;;;4992039;28;20030;-72
2022/08/09 09:49:05;;;;;;;3.42;1.52;;;25.00;64.90;;;;;;5006061;28;20034;-72
2022/08/09 09:51:33;;;;;;;5.45;2.25;;;25.00;63.90;;;;;;4992481;28;20145;-72
2022/08/09 09:54:18;;;;;;;5.40;2.45;;;25.10;62.90;;;;;;4994179;28;20394;-72
2022/08/09 09:56:46;;;;;;;3.50;1.10;;;25.20;62.80;;;;;;4989921;28;20030;-72
2022/08/09 09:59:13;;;;;;;3.83;1.63;;;25.20;62.30;;;;;;4987378;28;20022;-72
2022/08/09 10:01:41;;;;;;;3.03;1.45;;;25.20;61.60;;;;;;4983208;28;20018;-72
2022/08/09 10:04:15;;;;;;;5.53;1.52;;;25.20;62.50;;;;;;4988145;28;20030;-73
2022/08/09 10:06:44;;;;;;;2.25;1.40;;;25.20;61.20;;;;;;4991570;28;20061;-72
2022/08/09 10:09:12;;;;;;;2.15;1.42;;;25.30;61.00;;;;;;4989954;28;20027;-73
2022/08/09 10:11:38;;;;;;;2.53;1.67;;;25.30;61.10;;;;;;4988607;28;20026;-72
2022/08/09 10:14:04;;;;;;;3.08;1.70;;;25.30;60.80;;;;;;4991015;28;20479;-73
2022/08/09 10:16:32;;;;;;;6.47;2.00;;;25.30;60.40;;;;;;4989228;28;20022;-73
2022/08/09 10:19:02;;;;;;;1.95;1.30;;;25.30;60.40;;;;;;4989117;28;20033;-73
2022/08/09 10:21:27;;;;;;;5.82;1.70;;;25.30;60.30;;;;;;4987322;28;20468;-73
2022/08/09 10:23:55;;;;;;;5.70;1.55;;;25.30;59.50;;;;;;4993144;28;20116;-73
2022/08/09 10:26:22;;;;;;;4.68;1.67;;;25.30;60.00;;;;;;4988662;28;20078;-73
2022/08/09 10:28:48;;;;;;;2.20;1.67;;;25.30;60.30;;;;;;4991048;28;20049;-73
2022/08/09 10:31:15;;;;;;;2.92;1.60;;;25.40;60.30;;;;;;4993037;28;20026;-75
2022/08/09 10:33:42;;;;;;;4.82;1.52;;;25.30;60.90;;;;;;4993054;28;20387;-73
2022/08/09 10:36:09;;;;;;;4.47;1.80;;;25.40;61.10;;;;;;4990397;28;20018;-73
2022/08/09 10:38:37;;;;;;;1.83;1.40;;;25.40;60.90;;;;;;4993809;28;20072;-73
2022/08/09 10:41:03;;;;;;;5.03;1.92;;;25.50;60.40;;;;;;4993889;28;20041;-73
2022/08/09 10:43:29;;;;;;;3.42;1.73;;;25.50;60.30;;;;;;4996666;28;20610;-74
2022/08/09 10:46:20;;;;;;;2.67;1.50;;;25.50;60.70;;;;;;4987108;28;20022;-73
2022/08/09 10:49:29;;;;;;;3.00;1.42;;;25.60;60.20;;;;;;4985222;28;20455;-73
2022/08/09 10:52:21;;;;;;;4.70;1.40;;;25.50;59.90;;;;;;4991137;28;20124;-74
2022/08/09 10:54:47;;;;;;;4.18;2.28;;;25.60;60.10;;;;;;4993444;28;20031;-71
2022/08/09 10:57:13;;;;;;;3.95;1.60;;;25.60;59.90;;;;;;4984371;28;20038;-72
2022/08/09 10:59:41;;;;;;;2.30;1.55;;;25.60;59.40;;;;;;4989141;28;20392;-71
2022/08/09 11:02:34;;;;;;;4.32;1.58;;;25.70;59.30;;;;;;5015508;23;20030;-73
2022/08/09 11:05:14;;;;;;;2.75;1.58;;;25.80;59.00;;;;;;5018212;28;20573;-75
2022/08/09 11:07:40;;;;;;;3.67;1.73;;;25.80;58.60;;;;;;5019849;28;20057;-72
2022/08/09 11:10:06;;;;;;;7.53;3.25;;;25.80;58.50;;;;;;5013962;28;20065;-72
2022/08/09 11:12:32;;;;;;;3.33;2.17;;;25.90;58.80;;;;;;5017077;28;20076;-72
2022/08/09 11:15:21;;;;;;;2.70;2.00;;;25.90;58.40;;;;;;5011034;28;20117;-72
2022/08/09 11:17:48;;;;;;;5.95;2.30;;;26.00;57.80;;;;;;5015092;28;20077;-72
2022/08/09 11:20:15;;;;;;;3.70;1.70;;;25.90;57.70;;;;;;5014864;28;20108;-72
2022/08/09 11:22:43;;;;;;;2.08;1.77;;;26.00;57.40;;;;;;5017309;28;20084;-72
2022/08/09 11:25:13;;;;;;;2.08;1.40;;;26.00;56.90;;;;;;5017792;28;20046;-72
2022/08/09 11:27:47;;;;;;;5.88;2.22;;;26.00;57.00;;;;;;5016150;28;20030;-72
2022/08/09 11:30:21;;;;;;;3.58;1.60;;;26.00;56.80;;;;;;5010456;28;20483;-71
2022/08/09 11:32:50;;;;;;;4.78;1.60;;;26.00;56.60;;;;;;5017294;28;20061;-72
2022/08/09 11:35:22;;;;;;;3.33;1.63;;;26.10;56.30;;;;;;5021549;28;20124;-72
2022/08/09 11:37:50;;;;;;;1.98;1.48;;;26.10;56.30;;;;;;5017722;28;20064;-72
2022/08/09 11:40:30;;;;;;;3.40;1.70;;;26.20;56.50;;;;;;5017424;28;20033;-72
2022/08/09 11:42:58;;;;;;;4.78;1.70;;;26.20;57.00;;;;;;5017656;28;20056;-72
2022/08/09 11:45:30;;;;;;;2.65;1.48;;;26.20;57.20;;;;;;5014503;28;20022;-72
2022/08/09 11:48:20;;;;;;;3.70;1.60;;;26.20;57.40;;;;;;5014760;28;20087;-72
2022/08/09 11:50:58;;;;;;;1.70;1.60;;;26.10;57.30;;;;;;5016888;28;20029;-72
2022/08/09 11:53:29;;;;;;;3.35;1.70;;;26.10;56.30;;;;;;5015994;28;20032;-71
2022/08/09 11:55:57;;;;;;;1.80;1.30;;;26.10;55.80;;;;;;5018696;28;20021;-72
2022/08/09 11:58:27;;;;;;;2.85;1.60;;;26.00;55.40;;;;;;5011644;22;20046;-72
2022/08/09 12:01:02;;;;;;;3.10;1.60;;;26.00;56.30;;;;;;5013869;28;20026;-70
2022/08/09 12:03:28;;;;;;;1.83;1.40;;;26.00;56.80;;;;;;5004103;28;20026;-71
2022/08/09 12:05:56;;;;;;;5.70;1.67;;;26.00;57.40;;;;;;5014298;28;20459;-71
2022/08/09 12:08:23;;;;;;;5.65;2.00;;;26.00;57.60;;;;;;5022102;28;20026;-71
2022/08/09 12:10:53;;;;;;;2.63;1.70;;;25.90;57.70;;;;;;5000600;28;20028;-72
2022/08/09 12:13:35;;;;;;;5.28;1.58;;;26.00;58.00;;;;;;4993867;28;20064;-71
2022/08/09 12:16:13;;;;;;;1.98;1.75;;;26.00;58.20;;;;;;4986745;28;20030;-75
2022/08/09 12:18:47;;;;;;;1.42;1.25;;;26.00;57.30;;;;;;4992411;28;20025;-74
2022/08/09 12:21:22;;;;;;;5.60;2.92;;;26.10;57.40;;;;;;4994313;28;20120;-76
2022/08/09 12:23:49;;;;;;;3.85;1.50;;;26.20;56.80;;;;;;4992167;28;20137;-75
2022/08/09 12:26:15;;;;;;;2.08;1.45;;;26.20;56.50;;;;;;4998004;28;20018;-74
2022/08/09 12:28:48;;;;;;;3.53;1.60;;;26.20;56.60;;;;;;4995336;28;20029;-75
2022/08/09 12:31:25;;;;;;;6.38;1.65;;;26.30;56.20;;;;;;4999049;28;20037;-75
2022/08/09 12:33:53;;;;;;;4.82;1.80;;;26.40;56.40;;;;;;4991871;28;20096;-74
2022/08/09 12:36:21;;;;;;;3.00;1.50;;;26.50;56.00;;;;;;4994460;28;20029;-75
2022/08/09 12:38:51;;;;;;;3.17;2.03;;;26.50;56.00;;;;;;4996208;28;20022;-74
2022/08/09 12:41:29;;;;;;;3.83;1.50;;;26.50;56.10;;;;;;5012044;28;20098;-75
2022/08/09 12:43:56;;;;;;;6.88;2.13;;;26.60;55.10;;;;;;4993998;28;20069;-74
2022/08/09 12:46:24;;;;;;;5.57;1.60;;;26.60;55.10;;;;;;4996304;28;20034;-74
2022/08/09 12:48:51;;;;;;;3.10;1.98;;;26.60;55.40;;;;;;4997808;28;20521;-74
2022/08/09 12:51:19;;;;;;;2.45;1.52;;;26.60;55.50;;;;;;4995135;28;20398;-74